Wizard — WDC6082 — position and weather

sailwx.info

Track history (hours):
 
Tides and Currents Weather Stations Pressure Air Temp Water Temp Dewpoint Dewpoint Depression Visibility Wind Speed Wind Dir Waves Ship Positions

Wizard

Owner: K. H.Colburn Inc, Fall City, WA. More information available from US FCC via Universal Licensing System and Coast Guard Vessel Documentation Center.

Last reported at 2014-Sep-27 03:27 UTC. Time now 2014-Oct-31 17:54 UTC.
Position N 48°56' W 126°27'.
Warning: this ship's position is 34 days out of date.

Length 52 m; draft 0.4 m.

MMSI: 5491.

Date/timePositionNaut miles runAvg speedWind from/ knotsBaromVisibWave heightAir tempDewpointWater temp
2014-Sep-27 03:27N 48°56' W 126°27'910.0
2014-Sep-27 02:33N 48°52' W 126°15'1010.1
2014-Sep-27 01:33N 48°48' W 126°01'1010.2
2014-Sep-27 00:33N 48°44' W 125°47'1010.1
2014-Sep-26 23:33N 48°39' W 125°33'1010.3
2014-Sep-26 22:33N 48°35' W 125°19'1110.2
2014-Sep-26 21:31N 48°31' W 125°04'9 9.5
2014-Sep-26 20:32N 48°30' W 124°50'9 8.8
2014-Sep-26 19:33N 48°29' W 124°37'10 9.6
2014-Sep-26 18:33N 48°25' W 124°24'1010.6
2014-Sep-26 17:33N 48°22' W 124°09'1110.6
2014-Sep-26 16:34N 48°18' W 123°54'1110.7
2014-Sep-26 15:33N 48°16' W 123°38'10 9.8
2014-Sep-26 14:33N 48°15' W 123°23'10 9.6
2014-Sep-26 13:33N 48°13' W 123°09'9 9.1
2014-Sep-26 12:33N 48°12' W 122°56'14 7.1
2014-Sep-26 10:33N 48°04' W 122°38'7 8.5
2014-Sep-26 09:46N 47°58' W 122°34'2 8.3
2014-Sep-26 09:33N 47°57' W 122°32'0 9.2
2014-Sep-26 09:31N 47°57' W 122°32'9 9.5
2014-Sep-26 08:33N 47°48' W 122°27'110.0
2014-Sep-26 08:30N 47°48' W 122°26'8 8.3
2014-Sep-26 07:33N 47°40' W 122°24'0 2.2
2014-Sep-26 07:30N 47°40' W 122°24'1 1.1
2014-Sep-26 06:33N 47°39' W 122°23'0 0.0
2014-Sep-26 06:30N 47°39' W 122°23'0 0.0
2014-Sep-26 05:59N 47°39' W 122°23'0 0.0
2014-Sep-26 05:33N 47°39' W 122°23'0 0.0
2014-Sep-26 04:33N 47°39' W 122°23'0 0.0
2014-Sep-26 04:29N 47°39' W 122°23'0 0.0
2014-Sep-26 03:33N 47°39' W 122°23'0 0.0
2014-Sep-26 03:29N 47°39' W 122°23'0 0.0
2014-Sep-26 02:33N 47°39' W 122°23'0 0.0
2014-Sep-26 02:29N 47°39' W 122°23'0 0.0
2014-Sep-25 23:05N 47°39' W 122°23'0 0.0
2014-Sep-25 23:05N 47°39' W 122°23'0 0.0
2014-Sep-25 22:33N 47°39' W 122°23'0 0.0
2014-Sep-25 22:30N 47°39' W 122°23'1 1.1
2014-Sep-25 21:33N 47°40' W 122°24'0 0.1
2014-Sep-25 21:30N 47°40' W 122°24'5 5.7
2014-Sep-25 20:33N 47°45' W 122°25'1 9.2
2014-Sep-25 20:29N 47°46' W 122°25'6 6.4
2014-Sep-25 19:33N 47°40' W 122°24'0 4.3
2014-Sep-25 19:29N 47°40' W 122°24'0 0.3
2014-Sep-25 18:33N 47°40' W 122°23'0 0.0
2014-Sep-25 18:29N 47°40' W 122°23'  
Track history (hours):
 
Tides and Currents Weather Stations Pressure Air Temp Water Temp Dewpoint Dewpoint Depression Visibility Wind Speed Wind Dir Waves Ship Positions

Wizard

Owner: K. H.Colburn Inc, Fall City, WA. More information available from US FCC via Universal Licensing System and Coast Guard Vessel Documentation Center.

Last reported at 2014-Sep-27 03:27 UTC. Time now 2014-Oct-31 17:54 UTC.
Position N 48°56' W 126°27'.
Warning: this ship's position is 34 days out of date.

Length 52 m; draft 0.4 m.

MMSI: 5491.

Date/timePositionNaut miles runAvg speedWind from/ knotsBaromVisibWave heightAir tempDewpointWater temp
2014-Sep-27 03:27N 48°56' W 126°27'910.0
2014-Sep-27 02:33N 48°52' W 126°15'1010.1
2014-Sep-27 01:33N 48°48' W 126°01'1010.2
2014-Sep-27 00:33N 48°44' W 125°47'1010.1
2014-Sep-26 23:33N 48°39' W 125°33'1010.3
2014-Sep-26 22:33N 48°35' W 125°19'1110.2
2014-Sep-26 21:31N 48°31' W 125°04'9 9.5
2014-Sep-26 20:32N 48°30' W 124°50'9 8.8
2014-Sep-26 19:33N 48°29' W 124°37'10 9.6
2014-Sep-26 18:33N 48°25' W 124°24'1010.6
2014-Sep-26 17:33N 48°22' W 124°09'1110.6
2014-Sep-26 16:34N 48°18' W 123°54'1110.7
2014-Sep-26 15:33N 48°16' W 123°38'10 9.8
2014-Sep-26 14:33N 48°15' W 123°23'10 9.6
2014-Sep-26 13:33N 48°13' W 123°09'9 9.1
2014-Sep-26 12:33N 48°12' W 122°56'14 7.1
2014-Sep-26 10:33N 48°04' W 122°38'7 8.5
2014-Sep-26 09:46N 47°58' W 122°34'2 8.3
2014-Sep-26 09:33N 47°57' W 122°32'0 9.2
2014-Sep-26 09:31N 47°57' W 122°32'9 9.5
2014-Sep-26 08:33N 47°48' W 122°27'110.0
2014-Sep-26 08:30N 47°48' W 122°26'8 8.3
2014-Sep-26 07:33N 47°40' W 122°24'0 2.2
2014-Sep-26 07:30N 47°40' W 122°24'1 1.1
2014-Sep-26 06:33N 47°39' W 122°23'0 0.0
2014-Sep-26 06:30N 47°39' W 122°23'0 0.0
2014-Sep-26 05:59N 47°39' W 122°23'0 0.0
2014-Sep-26 05:33N 47°39' W 122°23'0 0.0
2014-Sep-26 04:33N 47°39' W 122°23'0 0.0
2014-Sep-26 04:29N 47°39' W 122°23'0 0.0
2014-Sep-26 03:33N 47°39' W 122°23'0 0.0
2014-Sep-26 03:29N 47°39' W 122°23'0 0.0
2014-Sep-26 02:33N 47°39' W 122°23'0 0.0
2014-Sep-26 02:29N 47°39' W 122°23'0 0.0
2014-Sep-25 23:05N 47°39' W 122°23'0 0.0
2014-Sep-25 23:05N 47°39' W 122°23'0 0.0
2014-Sep-25 22:33N 47°39' W 122°23'0 0.0
2014-Sep-25 22:30N 47°39' W 122°23'1 1.1
2014-Sep-25 21:33N 47°40' W 122°24'0 0.1
2014-Sep-25 21:30N 47°40' W 122°24'5 5.7
2014-Sep-25 20:33N 47°45' W 122°25'1 9.2
2014-Sep-25 20:29N 47°46' W 122°25'6 6.4
2014-Sep-25 19:33N 47°40' W 122°24'0 4.3
2014-Sep-25 19:29N 47°40' W 122°24'0 0.3
2014-Sep-25 18:33N 47°40' W 122°23'0 0.0
2014-Sep-25 18:29N 47°40' W 122°23'  

Dump ship's entire track history